sensor_id;sensor_type;location;lat;lon;timestamp;P1;durP1;ratioP1;P2;durP2;ratioP2
11414;SDS011;5763;42.714;23.244;2023-06-10T00:00:36;6.90;;;5.60;;
11414;SDS011;5763;42.714;23.244;2023-06-10T00:03:04;8.23;;;6.30;;
11414;SDS011;5763;42.714;23.244;2023-06-10T00:05:32;7.88;;;6.53;;
11414;SDS011;5763;42.714;23.244;2023-06-10T00:07:59;8.60;;;6.88;;
11414;SDS011;5763;42.714;23.244;2023-06-10T00:10:32;7.45;;;6.05;;
11414;SDS011;5763;42.714;23.244;2023-06-10T00:13:00;9.90;;;6.32;;
11414;SDS011;5763;42.714;23.244;2023-06-10T00:15:27;8.32;;;5.80;;
11414;SDS011;5763;42.714;23.244;2023-06-10T00:17:54;6.57;;;5.70;;
11414;SDS011;5763;42.714;23.244;2023-06-10T00:20:21;7.35;;;5.68;;
11414;SDS011;5763;42.714;23.244;2023-06-10T00:22:50;7.63;;;6.00;;
11414;SDS011;5763;42.714;23.244;2023-06-10T00:25:17;7.13;;;5.80;;
11414;SDS011;5763;42.714;23.244;2023-06-10T00:27:44;8.43;;;6.18;;
11414;SDS011;5763;42.714;23.244;2023-06-10T00:30:11;7.07;;;6.38;;
11414;SDS011;5763;42.714;23.244;2023-06-10T00:32:38;7.55;;;6.47;;
11414;SDS011;5763;42.714;23.244;2023-06-10T00:35:05;6.38;;;5.75;;
11414;SDS011;5763;42.714;23.244;2023-06-10T00:37:32;9.45;;;6.40;;
11414;SDS011;5763;42.714;23.244;2023-06-10T00:40:01;6.82;;;6.22;;
11414;SDS011;5763;42.714;23.244;2023-06-10T00:42:28;10.30;;;6.70;;
11414;SDS011;5763;42.714;23.244;2023-06-10T00:44:55;6.95;;;6.35;;
11414;SDS011;5763;42.714;23.244;2023-06-10T00:47:22;8.00;;;6.15;;
11414;SDS011;5763;42.714;23.244;2023-06-10T00:49:49;8.40;;;7.38;;
11414;SDS011;5763;42.714;23.244;2023-06-10T00:52:17;7.03;;;6.20;;
11414;SDS011;5763;42.714;23.244;2023-06-10T00:54:45;7.25;;;6.55;;
11414;SDS011;5763;42.714;23.244;2023-06-10T00:57:13;7.47;;;6.68;;
11414;SDS011;5763;42.714;23.244;2023-06-10T00:59:40;6.53;;;5.93;;
11414;SDS011;5763;42.714;23.244;2023-06-10T01:02:10;8.20;;;7.05;;
11414;SDS011;5763;42.714;23.244;2023-06-10T01:04:36;7.30;;;6.40;;
11414;SDS011;5763;42.714;23.244;2023-06-10T01:07:05;6.70;;;6.07;;
11414;SDS011;5763;42.714;23.244;2023-06-10T01:09:41;8.07;;;6.28;;
11414;SDS011;5763;42.714;23.244;2023-06-10T01:12:20;7.53;;;6.32;;
11414;SDS011;5763;42.714;23.244;2023-06-10T01:14:55;7.50;;;6.60;;
11414;SDS011;5763;42.714;23.244;2023-06-10T01:17:23;9.07;;;6.10;;
11414;SDS011;5763;42.714;23.244;2023-06-10T01:19:55;6.18;;;5.57;;
11414;SDS011;5763;42.714;23.244;2023-06-10T01:22:24;7.50;;;6.45;;
11414;SDS011;5763;42.714;23.244;2023-06-10T01:24:53;10.15;;;6.00;;
11414;SDS011;5763;42.714;23.244;2023-06-10T01:27:23;6.47;;;5.57;;
11414;SDS011;5763;42.714;23.244;2023-06-10T01:29:57;6.38;;;5.72;;
11414;SDS011;5763;42.714;23.244;2023-06-10T01:32:29;5.68;;;5.18;;
11414;SDS011;5763;42.714;23.244;2023-06-10T01:35:01;7.05;;;5.63;;
11414;SDS011;5763;42.714;23.244;2023-06-10T01:37:30;5.70;;;5.20;;
11414;SDS011;5763;42.714;23.244;2023-06-10T01:39:58;5.80;;;5.18;;
11414;SDS011;5763;42.714;23.244;2023-06-10T01:42:26;6.25;;;5.65;;
11414;SDS011;5763;42.714;23.244;2023-06-10T01:44:54;5.10;;;4.57;;
11414;SDS011;5763;42.714;23.244;2023-06-10T01:47:21;6.28;;;5.18;;
11414;SDS011;5763;42.714;23.244;2023-06-10T01:49:48;5.55;;;5.05;;
11414;SDS011;5763;42.714;23.244;2023-06-10T01:52:14;7.00;;;4.80;;
11414;SDS011;5763;42.714;23.244;2023-06-10T01:54:43;5.82;;;4.88;;
11414;SDS011;5763;42.714;23.244;2023-06-10T01:57:10;6.13;;;4.88;;
11414;SDS011;5763;42.714;23.244;2023-06-10T01:59:37;7.75;;;5.20;;
11414;SDS011;5763;42.714;23.244;2023-06-10T02:02:04;6.07;;;5.35;;
11414;SDS011;5763;42.714;23.244;2023-06-10T02:04:31;5.95;;;5.30;;
11414;SDS011;5763;42.714;23.244;2023-06-10T02:06:58;7.57;;;5.45;;
11414;SDS011;5763;42.714;23.244;2023-06-10T02:09:29;7.28;;;5.45;;
11414;SDS011;5763;42.714;23.244;2023-06-10T02:11:57;6.68;;;5.20;;
11414;SDS011;5763;42.714;23.244;2023-06-10T02:14:24;6.15;;;5.55;;
11414;SDS011;5763;42.714;23.244;2023-06-10T02:16:51;7.93;;;5.68;;
11414;SDS011;5763;42.714;23.244;2023-06-10T02:19:21;6.72;;;5.20;;
11414;SDS011;5763;42.714;23.244;2023-06-10T02:21:48;6.90;;;5.43;;
11414;SDS011;5763;42.714;23.244;2023-06-10T02:24:15;6.60;;;5.82;;
11414;SDS011;5763;42.714;23.244;2023-06-10T02:26:42;5.78;;;5.20;;
11414;SDS011;5763;42.714;23.244;2023-06-10T02:29:11;7.85;;;6.05;;
11414;SDS011;5763;42.714;23.244;2023-06-10T02:31:38;6.30;;;5.47;;
11414;SDS011;5763;42.714;23.244;2023-06-10T02:34:06;6.43;;;5.55;;
11414;SDS011;5763;42.714;23.244;2023-06-10T02:36:32;6.13;;;5.53;;
11414;SDS011;5763;42.714;23.244;2023-06-10T02:39:00;6.07;;;5.57;;
11414;SDS011;5763;42.714;23.244;2023-06-10T02:41:27;7.43;;;5.22;;
11414;SDS011;5763;42.714;23.244;2023-06-10T02:43:54;5.40;;;4.97;;
11414;SDS011;5763;42.714;23.244;2023-06-10T02:46:22;5.63;;;5.07;;
11414;SDS011;5763;42.714;23.244;2023-06-10T02:48:49;5.70;;;5.20;;
11414;SDS011;5763;42.714;23.244;2023-06-10T02:51:17;7.38;;;5.40;;
11414;SDS011;5763;42.714;23.244;2023-06-10T02:53:43;5.80;;;5.30;;
11414;SDS011;5763;42.714;23.244;2023-06-10T02:56:10;6.80;;;5.43;;
11414;SDS011;5763;42.714;23.244;2023-06-10T02:58:37;6.57;;;5.97;;
11414;SDS011;5763;42.714;23.244;2023-06-10T03:01:04;6.13;;;5.53;;
11414;SDS011;5763;42.714;23.244;2023-06-10T03:03:32;6.07;;;5.50;;
11414;SDS011;5763;42.714;23.244;2023-06-10T03:06:00;6.43;;;5.40;;
11414;SDS011;5763;42.714;23.244;2023-06-10T03:08:27;6.18;;;5.57;;
11414;SDS011;5763;42.714;23.244;2023-06-10T03:10:54;8.52;;;7.03;;
11414;SDS011;5763;42.714;23.244;2023-06-10T03:13:21;8.60;;;6.78;;
11414;SDS011;5763;42.714;23.244;2023-06-10T03:15:49;7.55;;;6.85;;
11414;SDS011;5763;42.714;23.244;2023-06-10T03:18:16;7.22;;;6.38;;
11414;SDS011;5763;42.714;23.244;2023-06-10T03:20:44;7.43;;;6.72;;
11414;SDS011;5763;42.714;23.244;2023-06-10T03:23:10;7.35;;;6.63;;
11414;SDS011;5763;42.714;23.244;2023-06-10T03:25:37;7.22;;;6.50;;
11414;SDS011;5763;42.714;23.244;2023-06-10T03:28:04;7.43;;;6.70;;
11414;SDS011;5763;42.714;23.244;2023-06-10T03:30:31;6.97;;;6.35;;
11414;SDS011;5763;42.714;23.244;2023-06-10T03:32:57;6.50;;;5.90;;
11414;SDS011;5763;42.714;23.244;2023-06-10T03:35:24;6.60;;;5.95;;
11414;SDS011;5763;42.714;23.244;2023-06-10T03:37:54;10.63;;;6.57;;
11414;SDS011;5763;42.714;23.244;2023-06-10T03:40:20;7.10;;;6.40;;
11414;SDS011;5763;42.714;23.244;2023-06-10T03:42:47;7.38;;;6.50;;
11414;SDS011;5763;42.714;23.244;2023-06-10T03:45:14;6.47;;;5.88;;
11414;SDS011;5763;42.714;23.244;2023-06-10T03:47:40;8.77;;;6.10;;
11414;SDS011;5763;42.714;23.244;2023-06-10T03:50:08;7.80;;;6.50;;
11414;SDS011;5763;42.714;23.244;2023-06-10T03:52:37;6.60;;;6.00;;
11414;SDS011;5763;42.714;23.244;2023-06-10T03:55:06;6.82;;;6.13;;
11414;SDS011;5763;42.714;23.244;2023-06-10T03:57:33;7.20;;;5.65;;
11414;SDS011;5763;42.714;23.244;2023-06-10T04:00:00;7.72;;;6.22;;
11414;SDS011;5763;42.714;23.244;2023-06-10T04:02:31;6.85;;;5.53;;
11414;SDS011;5763;42.714;23.244;2023-06-10T04:04:59;8.57;;;6.60;;
11414;SDS011;5763;42.714;23.244;2023-06-10T04:07:26;5.80;;;5.28;;
11414;SDS011;5763;42.714;23.244;2023-06-10T04:09:53;5.57;;;4.97;;
11414;SDS011;5763;42.714;23.244;2023-06-10T04:12:21;6.43;;;5.78;;
11414;SDS011;5763;42.714;23.244;2023-06-10T04:14:48;6.22;;;5.63;;
11414;SDS011;5763;42.714;23.244;2023-06-10T04:17:16;5.85;;;5.05;;
11414;SDS011;5763;42.714;23.244;2023-06-10T04:19:43;6.82;;;5.75;;
11414;SDS011;5763;42.714;23.244;2023-06-10T04:22:10;7.80;;;5.53;;
11414;SDS011;5763;42.714;23.244;2023-06-10T04:24:37;7.75;;;5.80;;
11414;SDS011;5763;42.714;23.244;2023-06-10T04:27:04;9.50;;;5.63;;
11414;SDS011;5763;42.714;23.244;2023-06-10T04:29:33;6.68;;;5.13;;
11414;SDS011;5763;42.714;23.244;2023-06-10T04:32:00;6.22;;;5.43;;
11414;SDS011;5763;42.714;23.244;2023-06-10T04:34:27;6.22;;;5.63;;
11414;SDS011;5763;42.714;23.244;2023-06-10T04:36:54;5.85;;;5.35;;
11414;SDS011;5763;42.714;23.244;2023-06-10T04:39:21;6.45;;;5.53;;
11414;SDS011;5763;42.714;23.244;2023-06-10T04:41:48;7.90;;;5.78;;
11414;SDS011;5763;42.714;23.244;2023-06-10T04:44:15;6.20;;;5.60;;
11414;SDS011;5763;42.714;23.244;2023-06-10T04:46:43;7.85;;;5.38;;
11414;SDS011;5763;42.714;23.244;2023-06-10T04:49:10;5.68;;;5.18;;
11414;SDS011;5763;42.714;23.244;2023-06-10T04:51:39;6.32;;;5.65;;
11414;SDS011;5763;42.714;23.244;2023-06-10T04:54:06;7.45;;;5.80;;
11414;SDS011;5763;42.714;23.244;2023-06-10T04:56:32;6.90;;;5.47;;
11414;SDS011;5763;42.714;23.244;2023-06-10T04:59:00;6.47;;;5.15;;
11414;SDS011;5763;42.714;23.244;2023-06-10T05:01:27;5.95;;;5.32;;
11414;SDS011;5763;42.714;23.244;2023-06-10T05:03:55;8.55;;;5.43;;
11414;SDS011;5763;42.714;23.244;2023-06-10T05:06:22;6.40;;;5.70;;
11414;SDS011;5763;42.714;23.244;2023-06-10T05:08:48;7.93;;;5.55;;
11414;SDS011;5763;42.714;23.244;2023-06-10T05:11:15;8.80;;;5.78;;
11414;SDS011;5763;42.714;23.244;2023-06-10T05:13:42;6.07;;;5.43;;
11414;SDS011;5763;42.714;23.244;2023-06-10T05:16:09;7.07;;;6.10;;
11414;SDS011;5763;42.714;23.244;2023-06-10T05:18:35;7.50;;;5.90;;
11414;SDS011;5763;42.714;23.244;2023-06-10T05:21:04;6.50;;;5.90;;
11414;SDS011;5763;42.714;23.244;2023-06-10T05:23:31;6.57;;;5.88;;
11414;SDS011;5763;42.714;23.244;2023-06-10T05:25:58;5.65;;;5.13;;
11414;SDS011;5763;42.714;23.244;2023-06-10T05:28:24;7.53;;;6.50;;
11414;SDS011;5763;42.714;23.244;2023-06-10T05:30:51;6.85;;;5.75;;
11414;SDS011;5763;42.714;23.244;2023-06-10T05:33:18;7.43;;;5.50;;
11414;SDS011;5763;42.714;23.244;2023-06-10T05:35:45;13.00;;;11.27;;
11414;SDS011;5763;42.714;23.244;2023-06-10T05:38:13;8.05;;;7.25;;
11414;SDS011;5763;42.714;23.244;2023-06-10T05:40:40;8.65;;;5.63;;
11414;SDS011;5763;42.714;23.244;2023-06-10T05:43:07;7.57;;;6.15;;
11414;SDS011;5763;42.714;23.244;2023-06-10T05:45:34;6.82;;;6.20;;
11414;SDS011;5763;42.714;23.244;2023-06-10T05:48:01;6.45;;;5.80;;
11414;SDS011;5763;42.714;23.244;2023-06-10T05:50:28;9.77;;;6.25;;
11414;SDS011;5763;42.714;23.244;2023-06-10T05:52:54;9.88;;;5.75;;
11414;SDS011;5763;42.714;23.244;2023-06-10T05:55:23;8.30;;;6.93;;
11414;SDS011;5763;42.714;23.244;2023-06-10T05:57:57;6.80;;;6.00;;
11414;SDS011;5763;42.714;23.244;2023-06-10T06:00:24;7.88;;;6.78;;
11414;SDS011;5763;42.714;23.244;2023-06-10T06:02:52;8.40;;;7.50;;
11414;SDS011;5763;42.714;23.244;2023-06-10T06:05:19;7.38;;;5.68;;
11414;SDS011;5763;42.714;23.244;2023-06-10T06:07:46;6.38;;;5.47;;
11414;SDS011;5763;42.714;23.244;2023-06-10T06:10:12;6.95;;;6.25;;
11414;SDS011;5763;42.714;23.244;2023-06-10T06:12:41;11.75;;;8.50;;
11414;SDS011;5763;42.714;23.244;2023-06-10T06:15:08;10.52;;;7.13;;
11414;SDS011;5763;42.714;23.244;2023-06-10T06:17:35;7.47;;;5.35;;
11414;SDS011;5763;42.714;23.244;2023-06-10T06:20:02;8.93;;;5.32;;
11414;SDS011;5763;42.714;23.244;2023-06-10T06:22:30;14.15;;;10.27;;
11414;SDS011;5763;42.714;23.244;2023-06-10T06:24:56;17.05;;;13.32;;
11414;SDS011;5763;42.714;23.244;2023-06-10T06:27:23;11.07;;;8.70;;
11414;SDS011;5763;42.714;23.244;2023-06-10T06:29:51;10.95;;;8.60;;
11414;SDS011;5763;42.714;23.244;2023-06-10T06:32:18;10.80;;;8.40;;
11414;SDS011;5763;42.714;23.244;2023-06-10T06:34:45;8.68;;;7.07;;
11414;SDS011;5763;42.714;23.244;2023-06-10T06:37:14;8.93;;;6.30;;
11414;SDS011;5763;42.714;23.244;2023-06-10T06:39:41;8.50;;;6.85;;
11414;SDS011;5763;42.714;23.244;2023-06-10T06:42:07;7.53;;;6.20;;
11414;SDS011;5763;42.714;23.244;2023-06-10T06:44:35;5.78;;;5.28;;
11414;SDS011;5763;42.714;23.244;2023-06-10T06:47:03;6.10;;;5.50;;
11414;SDS011;5763;42.714;23.244;2023-06-10T06:49:30;8.10;;;5.50;;
11414;SDS011;5763;42.714;23.244;2023-06-10T06:51:57;6.97;;;5.38;;
11414;SDS011;5763;42.714;23.244;2023-06-10T06:54:23;6.53;;;5.88;;
11414;SDS011;5763;42.714;23.244;2023-06-10T06:56:50;5.68;;;4.82;;
11414;SDS011;5763;42.714;23.244;2023-06-10T06:59:17;7.82;;;5.53;;
11414;SDS011;5763;42.714;23.244;2023-06-10T07:01:44;6.80;;;5.25;;
11414;SDS011;5763;42.714;23.244;2023-06-10T07:04:14;6.30;;;5.28;;
11414;SDS011;5763;42.714;23.244;2023-06-10T07:06:41;4.95;;;4.53;;
11414;SDS011;5763;42.714;23.244;2023-06-10T07:09:08;5.50;;;4.90;;
11414;SDS011;5763;42.714;23.244;2023-06-10T07:11:35;7.55;;;5.22;;
11414;SDS011;5763;42.714;23.244;2023-06-10T07:14:02;5.60;;;4.82;;
11414;SDS011;5763;42.714;23.244;2023-06-10T07:16:29;7.00;;;4.90;;
11414;SDS011;5763;42.714;23.244;2023-06-10T07:18:55;5.30;;;4.80;;
11414;SDS011;5763;42.714;23.244;2023-06-10T07:21:23;4.90;;;3.60;;
11414;SDS011;5763;42.714;23.244;2023-06-10T07:23:50;4.03;;;3.63;;
11414;SDS011;5763;42.714;23.244;2023-06-10T07:26:18;3.90;;;3.53;;
11414;SDS011;5763;42.714;23.244;2023-06-10T07:28:45;5.22;;;3.58;;
11414;SDS011;5763;42.714;23.244;2023-06-10T07:31:12;3.65;;;3.33;;
11414;SDS011;5763;42.714;23.244;2023-06-10T07:33:39;4.78;;;3.40;;
11414;SDS011;5763;42.714;23.244;2023-06-10T07:36:06;3.83;;;3.47;;
11414;SDS011;5763;42.714;23.244;2023-06-10T07:38:34;3.92;;;3.20;;
11414;SDS011;5763;42.714;23.244;2023-06-10T07:41:01;4.22;;;3.80;;
11414;SDS011;5763;42.714;23.244;2023-06-10T07:43:27;6.18;;;3.90;;
11414;SDS011;5763;42.714;23.244;2023-06-10T07:45:54;5.15;;;3.92;;
11414;SDS011;5763;42.714;23.244;2023-06-10T07:48:21;5.88;;;3.97;;
11414;SDS011;5763;42.714;23.244;2023-06-10T07:50:47;5.60;;;3.72;;
11414;SDS011;5763;42.714;23.244;2023-06-10T07:53:14;5.78;;;4.60;;
11414;SDS011;5763;42.714;23.244;2023-06-10T07:55:42;6.22;;;4.53;;
11414;SDS011;5763;42.714;23.244;2023-06-10T07:58:09;5.05;;;4.55;;
11414;SDS011;5763;42.714;23.244;2023-06-10T08:00:36;5.93;;;5.13;;
11414;SDS011;5763;42.714;23.244;2023-06-10T08:03:03;6.65;;;4.63;;
11414;SDS011;5763;42.714;23.244;2023-06-10T08:05:29;4.35;;;3.95;;
11414;SDS011;5763;42.714;23.244;2023-06-10T08:07:56;4.28;;;3.83;;
11414;SDS011;5763;42.714;23.244;2023-06-10T08:10:23;6.20;;;3.85;;
11414;SDS011;5763;42.714;23.244;2023-06-10T08:12:51;4.80;;;3.97;;
11414;SDS011;5763;42.714;23.244;2023-06-10T08:15:18;6.22;;;4.47;;
11414;SDS011;5763;42.714;23.244;2023-06-10T08:17:45;4.45;;;4.05;;
11414;SDS011;5763;42.714;23.244;2023-06-10T08:20:12;6.85;;;5.70;;
11414;SDS011;5763;42.714;23.244;2023-06-10T08:22:39;5.53;;;5.03;;
11414;SDS011;5763;42.714;23.244;2023-06-10T08:25:06;10.07;;;8.00;;
11414;SDS011;5763;42.714;23.244;2023-06-10T08:27:34;7.60;;;6.03;;
11414;SDS011;5763;42.714;23.244;2023-06-10T08:30:03;5.68;;;5.05;;
11414;SDS011;5763;42.714;23.244;2023-06-10T08:32:30;4.32;;;3.65;;
11414;SDS011;5763;42.714;23.244;2023-06-10T08:34:57;4.97;;;4.32;;
11414;SDS011;5763;42.714;23.244;2023-06-10T08:37:24;4.57;;;4.00;;
11414;SDS011;5763;42.714;23.244;2023-06-10T08:39:50;4.30;;;3.85;;
11414;SDS011;5763;42.714;23.244;2023-06-10T08:42:19;5.43;;;3.85;;
11414;SDS011;5763;42.714;23.244;2023-06-10T08:44:50;4.03;;;3.65;;
11414;SDS011;5763;42.714;23.244;2023-06-10T08:47:22;4.93;;;3.63;;
11414;SDS011;5763;42.714;23.244;2023-06-10T08:49:50;4.57;;;3.42;;
11414;SDS011;5763;42.714;23.244;2023-06-10T08:52:17;4.43;;;3.20;;
11414;SDS011;5763;42.714;23.244;2023-06-10T08:54:47;5.20;;;3.03;;
11414;SDS011;5763;42.714;23.244;2023-06-10T08:57:18;4.57;;;3.50;;
11414;SDS011;5763;42.714;23.244;2023-06-10T08:59:46;4.28;;;3.75;;
11414;SDS011;5763;42.714;23.244;2023-06-10T09:02:14;8.70;;;3.53;;
11414;SDS011;5763;42.714;23.244;2023-06-10T09:04:46;4.65;;;3.75;;
11414;SDS011;5763;42.714;23.244;2023-06-10T09:07:14;4.22;;;3.30;;
11414;SDS011;5763;42.714;23.244;2023-06-10T09:09:42;4.10;;;3.70;;
11414;SDS011;5763;42.714;23.244;2023-06-10T09:12:09;5.95;;;4.75;;
11414;SDS011;5763;42.714;23.244;2023-06-10T09:14:37;4.35;;;2.92;;
11414;SDS011;5763;42.714;23.244;2023-06-10T09:17:05;4.28;;;2.90;;
11414;SDS011;5763;42.714;23.244;2023-06-10T09:19:32;4.57;;;3.33;;
11414;SDS011;5763;42.714;23.244;2023-06-10T09:22:00;3.30;;;3.00;;
11414;SDS011;5763;42.714;23.244;2023-06-10T09:24:27;3.53;;;3.20;;
11414;SDS011;5763;42.714;23.244;2023-06-10T09:27:01;4.57;;;3.28;;
11414;SDS011;5763;42.714;23.244;2023-06-10T09:29:29;3.45;;;3.15;;
11414;SDS011;5763;42.714;23.244;2023-06-10T09:31:55;3.75;;;3.40;;
11414;SDS011;5763;42.714;23.244;2023-06-10T09:34:24;5.18;;;2.75;;
11414;SDS011;5763;42.714;23.244;2023-06-10T09:36:51;3.55;;;2.75;;
11414;SDS011;5763;42.714;23.244;2023-06-10T09:39:20;3.38;;;3.08;;
11414;SDS011;5763;42.714;23.244;2023-06-10T09:41:47;3.00;;;2.47;;
11414;SDS011;5763;42.714;23.244;2023-06-10T09:44:15;3.50;;;3.20;;
11414;SDS011;5763;42.714;23.244;2023-06-10T09:46:42;6.07;;;3.08;;
11414;SDS011;5763;42.714;23.244;2023-06-10T09:49:12;3.38;;;2.97;;
11414;SDS011;5763;42.714;23.244;2023-06-10T09:51:44;3.10;;;2.90;;
11414;SDS011;5763;42.714;23.244;2023-06-10T09:54:16;5.38;;;3.58;;
11414;SDS011;5763;42.714;23.244;2023-06-10T09:56:44;5.07;;;3.92;;
11414;SDS011;5763;42.714;23.244;2023-06-10T09:59:13;4.68;;;4.00;;
11414;SDS011;5763;42.714;23.244;2023-06-10T10:01:41;3.45;;;2.97;;
11414;SDS011;5763;42.714;23.244;2023-06-10T10:04:08;4.15;;;3.75;;
11414;SDS011;5763;42.714;23.244;2023-06-10T10:06:34;4.22;;;3.92;;
11414;SDS011;5763;42.714;23.244;2023-06-10T10:09:02;4.22;;;3.80;;
11414;SDS011;5763;42.714;23.244;2023-06-10T10:11:30;6.03;;;5.43;;
11414;SDS011;5763;42.714;23.244;2023-06-10T10:14:00;4.40;;;4.00;;
11414;SDS011;5763;42.714;23.244;2023-06-10T10:16:31;4.90;;;4.50;;
11414;SDS011;5763;42.714;23.244;2023-06-10T10:19:04;3.80;;;3.30;;
11414;SDS011;5763;42.714;23.244;2023-06-10T10:21:34;4.18;;;3.30;;
11414;SDS011;5763;42.714;23.244;2023-06-10T10:24:05;4.28;;;3.88;;
11414;SDS011;5763;42.714;23.244;2023-06-10T10:26:43;4.47;;;3.17;;
11414;SDS011;5763;42.714;23.244;2023-06-10T10:29:16;4.88;;;2.88;;
11414;SDS011;5763;42.714;23.244;2023-06-10T10:31:50;4.38;;;3.83;;
11414;SDS011;5763;42.714;23.244;2023-06-10T10:34:19;4.18;;;3.78;;
11414;SDS011;5763;42.714;23.244;2023-06-10T10:36:50;3.80;;;3.33;;
11414;SDS011;5763;42.714;23.244;2023-06-10T10:39:18;3.33;;;2.97;;
11414;SDS011;5763;42.714;23.244;2023-06-10T10:41:45;3.05;;;2.78;;
11414;SDS011;5763;42.714;23.244;2023-06-10T10:44:15;2.70;;;2.50;;
11414;SDS011;5763;42.714;23.244;2023-06-10T10:46:43;4.55;;;2.67;;
11414;SDS011;5763;42.714;23.244;2023-06-10T10:49:12;2.60;;;2.40;;
11414;SDS011;5763;42.714;23.244;2023-06-10T10:51:53;2.75;;;2.55;;
11414;SDS011;5763;42.714;23.244;2023-06-10T10:54:27;2.80;;;2.60;;
11414;SDS011;5763;42.714;23.244;2023-06-10T10:57:11;3.53;;;3.22;;
11414;SDS011;5763;42.714;23.244;2023-06-10T10:59:50;3.28;;;2.90;;
11414;SDS011;5763;42.714;23.244;2023-06-10T11:02:31;3.13;;;2.80;;
11414;SDS011;5763;42.714;23.244;2023-06-10T11:05:04;4.15;;;3.22;;
11414;SDS011;5763;42.714;23.244;2023-06-10T11:07:33;3.45;;;3.15;;
11414;SDS011;5763;42.714;23.244;2023-06-10T11:10:02;4.25;;;3.00;;
11414;SDS011;5763;42.714;23.244;2023-06-10T11:15:20;4.03;;;3.05;;
11414;SDS011;5763;42.714;23.244;2023-06-10T11:18:08;3.47;;;3.17;;
11414;SDS011;5763;42.714;23.244;2023-06-10T11:20:45;3.70;;;3.40;;
11414;SDS011;5763;42.714;23.244;2023-06-10T11:26:11;3.20;;;2.90;;
11414;SDS011;5763;42.714;23.244;2023-06-10T11:29:08;3.25;;;2.95;;
11414;SDS011;5763;42.714;23.244;2023-06-10T11:31:40;4.00;;;2.83;;
11414;SDS011;5763;42.714;23.244;2023-06-10T11:34:09;4.05;;;3.00;;
11414;SDS011;5763;42.714;23.244;2023-06-10T11:36:37;4.18;;;3.28;;
11414;SDS011;5763;42.714;23.244;2023-06-10T11:39:07;4.00;;;3.60;;
11414;SDS011;5763;42.714;23.244;2023-06-10T11:41:35;3.88;;;3.25;;
11414;SDS011;5763;42.714;23.244;2023-06-10T11:44:04;4.90;;;4.25;;
11414;SDS011;5763;42.714;23.244;2023-06-10T11:46:34;6.30;;;4.47;;
11414;SDS011;5763;42.714;23.244;2023-06-10T11:49:02;2.75;;;2.55;;
11414;SDS011;5763;42.714;23.244;2023-06-10T11:51:32;3.63;;;3.20;;
11414;SDS011;5763;42.714;23.244;2023-06-10T11:54:00;3.42;;;3.10;;
11414;SDS011;5763;42.714;23.244;2023-06-10T11:56:28;4.97;;;3.45;;
11414;SDS011;5763;42.714;23.244;2023-06-10T11:58:56;5.90;;;3.65;;
11414;SDS011;5763;42.714;23.244;2023-06-10T12:01:29;4.40;;;4.00;;
11414;SDS011;5763;42.714;23.244;2023-06-10T12:03:56;4.63;;;3.95;;
11414;SDS011;5763;42.714;23.244;2023-06-10T12:06:26;4.90;;;3.72;;
11414;SDS011;5763;42.714;23.244;2023-06-10T12:08:53;4.10;;;3.70;;
11414;SDS011;5763;42.714;23.244;2023-06-10T12:11:20;4.20;;;3.80;;
11414;SDS011;5763;42.714;23.244;2023-06-10T12:13:48;4.20;;;3.80;;
11414;SDS011;5763;42.714;23.244;2023-06-10T12:16:16;3.95;;;3.47;;
11414;SDS011;5763;42.714;23.244;2023-06-10T12:18:44;4.13;;;3.70;;
11414;SDS011;5763;42.714;23.244;2023-06-10T12:21:20;6.47;;;4.88;;
11414;SDS011;5763;42.714;23.244;2023-06-10T12:24:02;4.50;;;3.78;;
11414;SDS011;5763;42.714;23.244;2023-06-10T12:26:34;3.75;;;3.40;;
11414;SDS011;5763;42.714;23.244;2023-06-10T12:29:18;5.32;;;3.22;;
11414;SDS011;5763;42.714;23.244;2023-06-10T12:31:52;3.45;;;3.15;;
11414;SDS011;5763;42.714;23.244;2023-06-10T12:34:20;3.13;;;2.83;;
11414;SDS011;5763;42.714;23.244;2023-06-10T12:36:54;3.45;;;3.15;;
11414;SDS011;5763;42.714;23.244;2023-06-10T12:39:22;3.88;;;3.05;;
11414;SDS011;5763;42.714;23.244;2023-06-10T12:41:49;3.80;;;3.42;;
11414;SDS011;5763;42.714;23.244;2023-06-10T12:44:17;3.35;;;2.92;;
11414;SDS011;5763;42.714;23.244;2023-06-10T12:46:44;3.80;;;3.40;;
11414;SDS011;5763;42.714;23.244;2023-06-10T12:49:18;3.92;;;3.60;;
11414;SDS011;5763;42.714;23.244;2023-06-10T12:51:47;3.78;;;3.35;;
11414;SDS011;5763;42.714;23.244;2023-06-10T12:54:13;3.58;;;2.90;;
11414;SDS011;5763;42.714;23.244;2023-06-10T12:56:42;3.78;;;3.08;;
11414;SDS011;5763;42.714;23.244;2023-06-10T12:59:08;6.20;;;5.60;;
11414;SDS011;5763;42.714;23.244;2023-06-10T13:04:04;4.68;;;3.05;;
11414;SDS011;5763;42.714;23.244;2023-06-10T13:06:32;10.77;;;3.83;;
11414;SDS011;5763;42.714;23.244;2023-06-10T13:09:02;4.63;;;3.15;;
11414;SDS011;5763;42.714;23.244;2023-06-10T13:11:30;5.00;;;3.60;;
11414;SDS011;5763;42.714;23.244;2023-06-10T13:13:58;4.90;;;3.80;;
11414;SDS011;5763;42.714;23.244;2023-06-10T13:16:25;8.10;;;3.85;;
11414;SDS011;5763;42.714;23.244;2023-06-10T13:18:52;6.65;;;3.08;;
11414;SDS011;5763;42.714;23.244;2023-06-10T13:21:19;4.63;;;3.90;;
11414;SDS011;5763;42.714;23.244;2023-06-10T13:23:46;4.50;;;3.22;;
11414;SDS011;5763;42.714;23.244;2023-06-10T13:26:13;4.85;;;3.50;;
11414;SDS011;5763;42.714;23.244;2023-06-10T13:28:41;4.05;;;3.65;;
11414;SDS011;5763;42.714;23.244;2023-06-10T13:31:09;3.90;;;3.60;;
11414;SDS011;5763;42.714;23.244;2023-06-10T13:33:36;4.47;;;3.90;;
11414;SDS011;5763;42.714;23.244;2023-06-10T13:36:04;6.47;;;3.80;;
11414;SDS011;5763;42.714;23.244;2023-06-10T13:38:31;5.80;;;3.83;;
11414;SDS011;5763;42.714;23.244;2023-06-10T13:40:58;3.83;;;3.40;;
11414;SDS011;5763;42.714;23.244;2023-06-10T13:43:25;4.22;;;3.70;;
11414;SDS011;5763;42.714;23.244;2023-06-10T13:45:51;5.22;;;3.63;;
11414;SDS011;5763;42.714;23.244;2023-06-10T13:48:19;8.30;;;4.00;;
11414;SDS011;5763;42.714;23.244;2023-06-10T13:50:46;4.28;;;3.78;;
11414;SDS011;5763;42.714;23.244;2023-06-10T13:53:13;4.28;;;3.90;;
11414;SDS011;5763;42.714;23.244;2023-06-10T13:55:40;5.45;;;4.30;;
11414;SDS011;5763;42.714;23.244;2023-06-10T13:58:07;5.68;;;3.83;;
11414;SDS011;5763;42.714;23.244;2023-06-10T14:00:34;4.13;;;3.75;;
11414;SDS011;5763;42.714;23.244;2023-06-10T14:03:00;4.15;;;3.75;;
11414;SDS011;5763;42.714;23.244;2023-06-10T14:05:29;4.60;;;3.63;;
11414;SDS011;5763;42.714;23.244;2023-06-10T14:07:56;3.60;;;3.30;;
11414;SDS011;5763;42.714;23.244;2023-06-10T14:10:23;5.75;;;3.33;;
11414;SDS011;5763;42.714;23.244;2023-06-10T14:12:50;3.90;;;3.50;;
11414;SDS011;5763;42.714;23.244;2023-06-10T14:15:17;6.30;;;3.47;;
11414;SDS011;5763;42.714;23.244;2023-06-10T14:17:44;4.30;;;3.75;;
11414;SDS011;5763;42.714;23.244;2023-06-10T14:20:11;3.55;;;3.22;;
11414;SDS011;5763;42.714;23.244;2023-06-10T14:22:40;6.35;;;5.75;;
11414;SDS011;5763;42.714;23.244;2023-06-10T14:25:07;9.23;;;8.32;;
11414;SDS011;5763;42.714;23.244;2023-06-10T14:27:34;7.72;;;4.18;;
11414;SDS011;5763;42.714;23.244;2023-06-10T14:30:01;4.38;;;3.97;;
11414;SDS011;5763;42.714;23.244;2023-06-10T14:32:29;5.25;;;3.45;;
11414;SDS011;5763;42.714;23.244;2023-06-10T14:34:56;4.28;;;3.88;;
11414;SDS011;5763;42.714;23.244;2023-06-10T14:37:22;4.10;;;3.67;;
11414;SDS011;5763;42.714;23.244;2023-06-10T14:39:50;3.83;;;3.42;;
11414;SDS011;5763;42.714;23.244;2023-06-10T14:42:17;4.93;;;3.40;;
11414;SDS011;5763;42.714;23.244;2023-06-10T14:44:44;4.30;;;3.60;;
11414;SDS011;5763;42.714;23.244;2023-06-10T14:47:10;6.55;;;3.40;;
11414;SDS011;5763;42.714;23.244;2023-06-10T14:49:37;3.50;;;3.20;;
11414;SDS011;5763;42.714;23.244;2023-06-10T14:52:04;4.95;;;3.30;;
11414;SDS011;5763;42.714;23.244;2023-06-10T14:54:31;3.90;;;3.30;;
11414;SDS011;5763;42.714;23.244;2023-06-10T14:56:59;3.53;;;3.22;;
11414;SDS011;5763;42.714;23.244;2023-06-10T14:59:26;5.75;;;3.80;;
11414;SDS011;5763;42.714;23.244;2023-06-10T15:01:53;5.57;;;3.53;;